Aérodrome :
LOGIN :

S'inscrire | Disclaimer

   EN    FR    IT 

 










Légende :    VFR   VFR Marginal   IFR   IFR Intensif   IFR Très Intensif
Visi : 
Plafond : 
>= 8 km
>= 3000ft
5 à 8 km
1000 à 3000 ft
1500m à 5 km
500 à 1000 ft
800 à 1500m
200 à 500 ft
< 800m
< 200 ft
Symboles :   Orages  Brouillard  Fortes neiges  Fortes précipitations  Vent > 20 kt
SIGMETs :   Divers  Orages  Givrage  Turbulence  Onde Orograph.  Cendres Volcan.






- Altitude de l'aérodrome : 13 ft
- Code IATA : OST


EBOS - Oostend bruges Int.

DERNIER METAR :
  • 221320Z 30009KT 9999 OVC012 05/03 Q1036 NOSIG

METARs EXPIRÉS :
  • 221250Z 28010KT 9999 OVC011 05/03 Q1037 NOSIG
  • 221220Z 27009KT 9999 BKN011 06/04 Q1036 NOSIG
  • 221150Z 27008KT 9999 BKN011 06/03 Q1036 NOSIG
  • 221120Z 28007KT 9000 BKN010 06/03 Q1037 TEMPO BKN012
  • 221050Z 29008KT 9000 OVC010 05/03 Q1037 NOSIG

TAF TAF EBOS
Valide du 22 à 12h jusqu'au 23 à 18h UTC


221112Z 2212/2318 29007KT 8000 SCT008 BKN012
TEMPO 2212/2310 BKN008
PROB40
TEMPO 2218/2311 3500 -DZ BR
PROB40 2310/2318 BKN018



MET'MAP, la Météo Aéronautique d'un coup d'oeil ! - Copyright ORBIFLY Décembre 2007 - Disclaimer

ORBIFLY MET'MAP TEAM :

Programmation & Développement : Alexandra Zaïnal
Sur une idée originale de : Baudouin d'Aumeries
Assistance à la programmation : Marc-Olivier Méhu
Soutien technique & logistique : Manuel Goepfert

Contact : metmap@orbifly.com




SOURCES & CREDITS :

   NOAA